createdAt,value
2019-02-08T00:01:12.442Z,100396.09
2019-02-08T00:04:02.292Z,100390.05
2019-02-08T00:06:52.272Z,100394.45
2019-02-08T00:09:42.315Z,100389.72
2019-02-08T00:12:32.408Z,100388.58
2019-02-08T00:15:22.706Z,100388.05
2019-02-08T00:18:13.400Z,100388.12
2019-02-08T00:21:03.893Z,100380.47
2019-02-08T00:23:54.072Z,100384.82
2019-02-08T00:26:44.171Z,100391.10
2019-02-08T00:29:33.938Z,100384.07
2019-02-08T00:32:24.067Z,100384.70
2019-02-08T00:35:14.711Z,100381.72
2019-02-08T00:38:04.814Z,100386.24
2019-02-08T00:40:54.660Z,100389.55
2019-02-08T00:43:44.273Z,100383.73
2019-02-08T00:46:34.229Z,100396.72
2019-02-08T00:49:24.429Z,100389.94
2019-02-08T00:52:14.367Z,100396.55
2019-02-08T00:55:04.649Z,100412.42
2019-02-08T00:57:54.465Z,100420.05
2019-02-08T01:00:44.674Z,100406.52
2019-02-08T01:03:34.694Z,100411.96
2019-02-08T01:06:24.899Z,100418.80
2019-02-08T01:09:14.907Z,100424.61
2019-02-08T01:12:04.960Z,100417.58
2019-02-08T01:14:54.617Z,100418.67
2019-02-08T01:17:44.608Z,100419.13
2019-02-08T01:20:35.117Z,100424.98
2019-02-08T01:23:24.844Z,100419.63
2019-02-08T01:26:14.667Z,100420.84
2019-02-08T01:29:04.428Z,100422.27
2019-02-08T01:31:54.313Z,100432.66
2019-02-08T01:34:44.539Z,100427.63
2019-02-08T01:37:35.002Z,100433.16
2019-02-08T01:40:34.238Z,100430.68
2019-02-08T01:43:25.599Z,100424.48
2019-02-08T01:46:15.239Z,100426.28
2019-02-08T01:49:05.147Z,100428.00
2019-02-08T01:51:55.128Z,100434.83
2019-02-08T01:54:45.133Z,100442.87
2019-02-08T01:57:35.328Z,100446.77
2019-02-08T02:00:30.360Z,100450.70
2019-02-08T02:03:21.254Z,100457.81
2019-02-08T02:06:11.296Z,100455.38
2019-02-08T02:09:01.562Z,100459.20
2019-02-08T02:11:53.029Z,100458.56
2019-02-08T02:14:43.333Z,100458.90
2019-02-08T02:17:34.182Z,100461.83
2019-02-08T02:20:27.328Z,100459.42
2019-02-08T02:23:17.883Z,100456.54
2019-02-08T02:26:07.869Z,100451.55
2019-02-08T02:28:57.950Z,100456.61
2019-02-08T02:31:48.175Z,100465.99
2019-02-08T02:34:37.886Z,100469.30
2019-02-08T02:37:28.119Z,100461.34
2019-02-08T02:40:18.948Z,100460.70
2019-02-08T02:43:09.821Z,100449.02
2019-02-08T02:45:59.881Z,100444.55
2019-02-08T02:48:49.679Z,100441.68
2019-02-08T02:51:40.019Z,100451.95
2019-02-08T02:54:29.581Z,100438.50
2019-02-08T02:57:19.377Z,100444.06
2019-02-08T03:00:19.131Z,100447.23
2019-02-08T03:03:09.678Z,100453.43
2019-02-08T03:05:59.541Z,100446.03
2019-02-08T03:08:49.715Z,100459.55
2019-02-08T03:11:39.526Z,100466.05
2019-02-08T03:14:29.359Z,100460.82
2019-02-08T03:17:19.143Z,100468.98
2019-02-08T03:20:14.375Z,100469.62
2019-02-08T03:23:04.393Z,100480.80
2019-02-08T03:25:54.733Z,100482.01
2019-02-08T03:28:44.319Z,100475.31
2019-02-08T03:31:34.099Z,100473.01
2019-02-08T03:34:24.148Z,100478.36
2019-02-08T03:37:13.970Z,100488.37
2019-02-08T03:40:05.903Z,100493.59
2019-02-08T03:42:57.708Z,100497.98
2019-02-08T03:45:49.465Z,100493.20
2019-02-08T03:48:39.170Z,100481.16
2019-02-08T03:51:28.861Z,100477.84
2019-02-08T03:54:21.311Z,100479.38
2019-02-08T03:57:11.223Z,100493.41
2019-02-08T04:00:01.390Z,100489.66
2019-02-08T04:02:51.670Z,100485.94
2019-02-08T04:05:41.827Z,100484.53
2019-02-08T04:08:31.728Z,100488.55
2019-02-08T04:11:21.554Z,100489.86
2019-02-08T04:14:11.696Z,100488.31
2019-02-08T04:17:01.429Z,100487.55
2019-02-08T04:19:51.656Z,100490.48
2019-02-08T04:22:41.638Z,100181.30
2019-02-08T04:25:31.185Z,100486.14
2019-02-08T04:28:21.350Z,100490.08
2019-02-08T04:31:11.093Z,100484.73
2019-02-08T04:34:00.884Z,100485.36
2019-02-08T04:36:50.688Z,100487.94
2019-02-08T04:39:40.396Z,100493.36
2019-02-08T04:42:30.264Z,100486.33
2019-02-08T04:45:20.852Z,100493.73
2019-02-08T04:48:10.941Z,100492.72
2019-02-08T04:51:01.270Z,100496.34
2019-02-08T04:53:50.845Z,100497.95
2019-02-08T04:56:40.875Z,100503.61
2019-02-08T04:59:31.052Z,100506.76
2019-02-08T05:02:21.164Z,100502.03
2019-02-08T05:05:11.238Z,100506.81
2019-02-08T05:08:01.234Z,100502.09
2019-02-08T05:10:51.558Z,100509.36
2019-02-08T05:13:41.580Z,100506.50
2019-02-08T05:16:31.327Z,100510.66
2019-02-08T05:19:21.063Z,100507.39
2019-02-08T05:22:11.081Z,100503.04
2019-02-08T05:25:00.955Z,100507.06
2019-02-08T05:27:52.598Z,100506.09
2019-02-08T05:30:42.946Z,100509.81
2019-02-08T05:33:32.950Z,100506.55
2019-02-08T05:36:23.074Z,100501.45
2019-02-08T05:39:13.206Z,100505.27
2019-02-08T05:42:03.484Z,100509.70
2019-02-08T05:44:53.145Z,100507.02
2019-02-08T05:47:42.701Z,100502.66
2019-02-08T05:50:32.776Z,100493.36
2019-02-08T05:53:22.796Z,100490.85
2019-02-08T05:56:13.036Z,100485.06
2019-02-08T05:59:02.941Z,100495.27
2019-02-08T06:01:53.305Z,100484.56
2019-02-08T06:04:43.601Z,100480.00
2019-02-08T06:07:33.371Z,100487.23
2019-02-08T06:10:23.361Z,100488.70
2019-02-08T06:13:13.349Z,100494.00
2019-02-08T06:16:03.558Z,100497.68
2019-02-08T06:18:53.421Z,100494.13
2019-02-08T06:21:43.462Z,100495.13
2019-02-08T06:24:33.576Z,100504.71
2019-02-08T06:27:23.506Z,100508.73
2019-02-08T06:30:20.158Z,100510.84
2019-02-08T06:33:10.201Z,100510.57
2019-02-08T06:36:00.512Z,100510.91
2019-02-08T06:38:50.695Z,100516.06
2019-02-08T06:41:40.762Z,100512.95
2019-02-08T06:44:30.881Z,100519.75
2019-02-08T06:47:20.373Z,100520.22
2019-02-08T06:50:12.556Z,100517.91
2019-02-08T06:53:02.566Z,100511.20
2019-02-08T06:55:54.016Z,100516.27
2019-02-08T06:58:50.227Z,100507.26
2019-02-08T07:02:17.198Z,100513.69
2019-02-08T07:05:18.835Z,100507.90
2019-02-08T07:08:16.784Z,100503.25
2019-02-08T07:11:24.354Z,100504.82
2019-02-08T07:14:26.365Z,100506.69
2019-02-08T07:17:42.040Z,100517.07
2019-02-08T07:20:44.641Z,100528.58
2019-02-08T07:23:44.353Z,100540.05
2019-02-08T07:26:52.441Z,100540.03
2019-02-08T07:30:04.327Z,100522.73
2019-02-08T07:33:15.943Z,100514.09
2019-02-08T07:36:28.127Z,100522.70
2019-02-08T07:39:27.049Z,100522.58
2019-02-08T07:42:25.098Z,100512.47
2019-02-08T07:45:24.538Z,100523.23
2019-02-08T07:48:34.149Z,100531.80
2019-02-08T07:51:48.746Z,100533.38
2019-02-08T07:54:55.606Z,100531.75
2019-02-08T07:57:53.563Z,100525.12
2019-02-08T08:00:54.490Z,100519.73
2019-02-08T08:04:02.112Z,100520.77
2019-02-08T08:07:17.345Z,100516.53
2019-02-08T08:10:20.503Z,100526.16
2019-02-08T08:13:24.278Z,100524.83
2019-02-08T08:16:36.703Z,100528.84
2019-02-08T08:19:58.044Z,100532.47
2019-02-08T08:23:05.722Z,100537.83
2019-02-08T08:26:13.247Z,100537.45
2019-02-08T08:29:24.307Z,100545.33
2019-02-08T08:32:29.118Z,100535.36
2019-02-08T08:36:01.883Z,100533.80
2019-02-08T08:39:42.042Z,100536.81
2019-02-08T08:43:11.707Z,100533.78
2019-02-08T08:47:11.892Z,100538.56
2019-02-08T08:51:04.749Z,100536.13
2019-02-08T08:54:37.364Z,100530.45
2019-02-08T08:58:13.063Z,100532.37
2019-02-08T09:02:05.730Z,100533.08
2019-02-08T09:05:41.216Z,100529.73
2019-02-08T09:09:09.600Z,100523.41
2019-02-08T09:12:41.468Z,100516.14
2019-02-08T09:16:24.506Z,100518.75
2019-02-08T09:19:45.194Z,100508.77
2019-02-08T09:23:27.663Z,100498.36
2019-02-08T09:27:36.262Z,100487.44
2019-02-08T09:31:30.434Z,100488.85
2019-02-08T09:35:10.702Z,100488.34
2019-02-08T09:38:46.531Z,100484.47
2019-02-08T09:42:46.264Z,100484.13
2019-02-08T09:46:23.717Z,100476.66
2019-02-08T09:50:26.596Z,100479.05
2019-02-08T09:54:18.352Z,100482.16
2019-02-08T09:58:09.662Z,100480.41
2019-02-08T10:02:14.626Z,100487.16
2019-02-08T10:06:05.378Z,100479.09
2019-02-08T10:09:51.195Z,100468.06
2019-02-08T10:13:31.288Z,100472.67
2019-02-08T10:17:10.553Z,100460.91
2019-02-08T10:20:54.496Z,100455.20
2019-02-08T10:24:41.281Z,100461.42
2019-02-08T10:28:42.608Z,100462.92
2019-02-08T10:32:24.137Z,100452.55
2019-02-08T10:35:52.583Z,100460.64
2019-02-08T10:39:39.087Z,100450.36
2019-02-08T10:43:25.298Z,100454.76
2019-02-08T10:46:53.679Z,100444.03
2019-02-08T10:50:55.518Z,100444.00
2019-02-08T10:54:46.886Z,100450.10
2019-02-08T10:58:37.498Z,100447.00
2019-02-08T11:02:08.722Z,100445.95
2019-02-08T11:06:20.293Z,100436.18
2019-02-08T11:09:57.315Z,100438.64
2019-02-08T11:13:36.437Z,100422.35
2019-02-08T11:17:14.237Z,100422.33
2019-02-08T11:20:06.837Z,100429.48
2019-02-08T11:22:56.633Z,100418.30
2019-02-08T11:25:46.591Z,100425.62
2019-02-08T11:28:35.702Z,100433.79
2019-02-08T11:31:25.574Z,100423.81
2019-02-08T11:34:15.849Z,100420.88
2019-02-08T11:37:06.730Z,100416.87
2019-02-08T11:39:56.489Z,100421.20
2019-02-08T11:42:46.392Z,100423.17
2019-02-08T11:45:36.531Z,100415.95
2019-02-08T11:48:26.810Z,100411.88
2019-02-08T11:51:16.747Z,100421.47
2019-02-08T11:54:07.293Z,100420.84
2019-02-08T11:56:58.360Z,100424.78
2019-02-08T11:59:48.117Z,100424.42
2019-02-08T12:02:40.562Z,100420.80
2019-02-08T12:05:29.593Z,100429.09
2019-02-08T12:08:19.645Z,100427.21
2019-02-08T12:11:09.867Z,100423.45
2019-02-08T12:13:59.842Z,100423.02
2019-02-08T12:16:49.925Z,100414.96
2019-02-08T12:19:39.610Z,100405.17
2019-02-08T12:22:29.670Z,100409.55
2019-02-08T12:25:19.276Z,100420.35
2019-02-08T12:28:09.423Z,100410.49
2019-02-08T12:30:59.437Z,100415.45
2019-02-08T12:33:49.177Z,100403.94
2019-02-08T12:36:39.860Z,100400.30
2019-02-08T12:39:30.109Z,100388.39
2019-02-08T12:42:19.618Z,100386.58
2019-02-08T12:45:10.137Z,100386.84
2019-02-08T12:47:59.883Z,100390.67
2019-02-08T12:50:49.807Z,100382.38
2019-02-08T12:53:39.530Z,100379.44
2019-02-08T12:56:29.302Z,100378.92
2019-02-08T12:59:19.152Z,100364.05
2019-02-08T13:02:09.364Z,100374.06
2019-02-08T13:04:59.060Z,100374.77
2019-02-08T13:07:49.014Z,100366.96
2019-02-08T13:10:39.196Z,100368.59
2019-02-08T13:13:28.987Z,100358.58
2019-02-08T13:16:18.955Z,100355.84
2019-02-08T13:19:09.695Z,100359.34
2019-02-08T13:21:59.804Z,100348.97
2019-02-08T13:24:49.744Z,100350.50
2019-02-08T13:27:39.719Z,100339.86
2019-02-08T13:30:30.134Z,100339.50
2019-02-08T13:33:20.237Z,100327.23
2019-02-08T13:36:16.022Z,100328.31
2019-02-08T13:39:09.327Z,100322.95
2019-02-08T13:42:01.237Z,100325.62
2019-02-08T13:44:51.348Z,100330.67
2019-02-08T13:47:41.276Z,100323.28
2019-02-08T13:50:31.236Z,100332.55
2019-02-08T13:53:21.060Z,100327.96
2019-02-08T13:56:11.499Z,100320.83
2019-02-08T13:59:01.104Z,100317.02
2019-02-08T14:01:51.321Z,100314.67
2019-02-08T14:04:41.441Z,100314.97
2019-02-08T14:07:31.510Z,100317.06
2019-02-08T14:10:21.771Z,100317.06
2019-02-08T14:13:11.302Z,100310.19
2019-02-08T14:16:01.024Z,100316.61
2019-02-08T14:18:50.865Z,100314.47
2019-02-08T14:21:40.571Z,100317.59
2019-02-08T14:24:30.677Z,100315.36
2019-02-08T14:27:20.867Z,100313.05
2019-02-08T14:30:30.802Z,100304.28
2019-02-08T14:33:21.133Z,100307.86
2019-02-08T14:36:11.055Z,100307.42
2019-02-08T14:39:01.258Z,100301.86
2019-02-08T14:41:52.733Z,100297.11
2019-02-08T14:44:42.830Z,100289.25
2019-02-08T14:47:32.882Z,100277.76
2019-02-08T14:50:24.829Z,100270.35
2019-02-08T14:53:14.915Z,100269.19
2019-02-08T14:56:05.492Z,100266.86
2019-02-08T14:58:55.306Z,100274.87
2019-02-08T15:01:45.481Z,100279.58
2019-02-08T15:04:35.633Z,100275.98
2019-02-08T15:07:25.518Z,100281.39
2019-02-08T15:10:28.688Z,100272.75
2019-02-08T15:13:18.470Z,100266.76
2019-02-08T15:16:08.322Z,100268.36
2019-02-08T15:18:57.896Z,100275.00
2019-02-08T15:21:47.928Z,100264.36
2019-02-08T15:24:38.570Z,100251.42
2019-02-08T15:27:28.871Z,100259.00
2019-02-08T15:30:26.015Z,100257.06
2019-02-08T15:33:15.819Z,100257.27
2019-02-08T15:36:05.878Z,100257.27
2019-02-08T15:38:56.138Z,100245.14
2019-02-08T15:41:46.509Z,100253.74
2019-02-08T15:44:36.245Z,100246.16
2019-02-08T15:47:25.827Z,100245.44
2019-02-08T15:50:15.881Z,100248.14
2019-02-08T15:53:05.375Z,100254.83
2019-02-08T15:56:06.735Z,100265.57
2019-02-08T15:58:56.523Z,100266.58
2019-02-08T16:01:45.985Z,100268.99
2019-02-08T16:04:35.436Z,100270.59
2019-02-08T16:07:25.318Z,100272.24
2019-02-08T16:10:16.291Z,100274.87
2019-02-08T16:13:06.611Z,100284.80
2019-02-08T16:15:56.842Z,100270.39
2019-02-08T16:18:47.445Z,100272.95
2019-02-08T16:21:37.691Z,100261.58
2019-02-08T16:24:27.895Z,100265.23
2019-02-08T16:27:17.641Z,100262.27
2019-02-08T16:30:15.066Z,100259.85
2019-02-08T16:33:06.327Z,100252.16
2019-02-08T16:35:55.769Z,100245.02
2019-02-08T16:38:46.240Z,100246.25
2019-02-08T16:41:35.725Z,100236.48
2019-02-08T16:44:25.908Z,100243.00
2019-02-08T16:47:16.540Z,100234.03
2019-02-08T16:50:09.757Z,100239.87
2019-02-08T16:52:59.569Z,100231.94
2019-02-08T16:55:50.004Z,100225.70
2019-02-08T16:58:39.972Z,100227.42
2019-02-08T17:01:29.803Z,100219.56
2019-02-08T17:04:19.346Z,100210.95
2019-02-08T17:07:09.005Z,100213.86
2019-02-08T17:09:58.691Z,100209.88
2019-02-08T17:12:49.069Z,100210.95
2019-02-08T17:15:39.475Z,100204.73
2019-02-08T17:18:29.198Z,100205.64
2019-02-08T17:21:18.705Z,100195.20
2019-02-08T17:24:09.128Z,100198.51
2019-02-08T17:26:59.873Z,100190.05
2019-02-08T17:29:50.030Z,100192.00
2019-02-08T17:32:39.817Z,100195.89
2019-02-08T17:35:30.358Z,100194.03
2019-02-08T17:38:20.004Z,100191.41
2019-02-08T17:41:10.117Z,100194.86
2019-02-08T17:44:00.212Z,100185.94
2019-02-08T17:46:50.307Z,100176.03
2019-02-08T17:49:39.959Z,100179.48
2019-02-08T17:52:30.155Z,100167.66
2019-02-08T17:55:21.958Z,100171.47
2019-02-08T17:58:12.131Z,100167.27
2019-02-08T18:01:01.707Z,100170.77
2019-02-08T18:03:51.715Z,100168.50
2019-02-08T18:06:41.721Z,100152.20
2019-02-08T18:09:31.582Z,100153.08
2019-02-08T18:12:21.323Z,100159.37
2019-02-08T18:15:14.600Z,100150.45
2019-02-08T18:18:05.014Z,100150.09
2019-02-08T18:21:02.473Z,100150.95
2019-02-08T18:23:52.443Z,100150.08
2019-02-08T18:26:42.517Z,100141.68
2019-02-08T18:29:32.828Z,100142.27
2019-02-08T18:32:22.699Z,100139.12
2019-02-08T18:35:13.367Z,100136.34
2019-02-08T18:38:04.995Z,100131.30
2019-02-08T18:40:55.306Z,100131.78
2019-02-08T18:43:45.114Z,100126.38
2019-02-08T18:46:35.465Z,100128.76
2019-02-08T18:49:25.408Z,100131.71
2019-02-08T18:52:15.155Z,100121.94
2019-02-08T18:55:05.419Z,100126.30
2019-02-08T18:57:56.457Z,100108.39
2019-02-08T19:00:49.095Z,100094.27
2019-02-08T19:03:38.846Z,100094.73
2019-02-08T19:06:28.713Z,100086.42
2019-02-08T19:09:19.037Z,100093.22
2019-02-08T19:12:08.578Z,100073.83
2019-02-08T19:14:58.299Z,100072.88
2019-02-08T19:17:48.408Z,100083.25
2019-02-08T19:20:38.382Z,100075.03
2019-02-08T19:23:29.945Z,100067.23
2019-02-08T19:26:19.519Z,100061.39
2019-02-08T19:29:09.506Z,100062.30
2019-02-08T19:31:59.842Z,100056.31
2019-02-08T19:34:50.623Z,100039.19
2019-02-08T19:37:40.537Z,100037.09
2019-02-08T19:40:33.229Z,100036.86
2019-02-08T19:43:23.145Z,100030.22
2019-02-08T19:46:13.038Z,100030.73
2019-02-08T19:49:02.933Z,100030.98
2019-02-08T19:51:52.469Z,100028.88
2019-02-08T19:54:43.550Z,100026.42
2019-02-08T19:57:33.200Z,100024.75
2019-02-08T20:00:25.025Z,100017.28
2019-02-08T20:03:14.485Z,100019.84
2019-02-08T20:06:04.362Z,100015.92
2019-02-08T20:08:54.712Z,100017.98
2019-02-08T20:11:45.458Z,100010.71
2019-02-08T20:14:35.180Z,100006.82
2019-02-08T20:17:24.626Z,100000.84
2019-02-08T20:20:15.144Z,100026.50
2019-02-08T20:23:06.120Z,99992.17
2019-02-08T20:25:55.238Z,99993.87
2019-02-08T20:28:45.282Z,99991.11
2019-02-08T20:31:36.385Z,99980.81
2019-02-08T20:34:26.137Z,99974.16
2019-02-08T20:37:15.695Z,99967.19
2019-02-08T20:40:08.907Z,99965.53
2019-02-08T20:42:58.951Z,99971.67
2019-02-08T20:45:48.386Z,99967.55
2019-02-08T20:48:38.896Z,99955.23
2019-02-08T20:51:29.115Z,99948.63
2019-02-08T20:54:18.585Z,99953.05
2019-02-08T20:57:08.965Z,99942.96
2019-02-08T20:59:58.733Z,99937.19
2019-02-08T21:02:49.161Z,99943.99
2019-02-08T21:05:38.661Z,99935.92
2019-02-08T21:08:28.922Z,99929.19
2019-02-08T21:11:19.196Z,99926.58
2019-02-08T21:14:09.133Z,99932.47
2019-02-08T21:16:59.056Z,99926.73
2019-02-08T21:19:49.212Z,99926.89
2019-02-08T21:22:38.809Z,99918.42
2019-02-08T21:25:29.720Z,99919.41
2019-02-08T21:28:19.267Z,99923.37
2019-02-08T21:31:09.343Z,99915.73
2019-02-08T21:33:58.753Z,99906.62
2019-02-08T21:36:48.393Z,99903.48
2019-02-08T21:39:38.345Z,99907.29
2019-02-08T21:42:28.482Z,99896.77
2019-02-08T21:45:21.090Z,99901.08
2019-02-08T21:48:12.090Z,99889.33
2019-02-08T21:51:02.387Z,99891.23
2019-02-08T21:53:52.245Z,99890.08
2019-02-08T21:56:42.145Z,99882.09
2019-02-08T21:59:31.910Z,99877.02
2019-02-08T22:02:21.314Z,99879.92
2019-02-08T22:05:11.463Z,99873.94
2019-02-08T22:08:01.565Z,99871.64
2019-02-08T22:10:51.502Z,99877.17
2019-02-08T22:13:41.716Z,99868.50
2019-02-08T22:16:32.067Z,99869.85
2019-02-08T22:19:21.746Z,99868.18
2019-02-08T22:22:11.227Z,99866.48
2019-02-08T22:25:01.314Z,99864.89
2019-02-08T22:27:51.523Z,99868.03
2019-02-08T22:30:41.986Z,99858.41
2019-02-08T22:33:31.885Z,99853.70
2019-02-08T22:36:21.695Z,99851.45
2019-02-08T22:39:12.164Z,99840.45
2019-02-08T22:42:01.980Z,99842.56
2019-02-08T22:44:51.486Z,99843.46
2019-02-08T22:47:41.774Z,99838.44
2019-02-08T22:50:32.054Z,99828.73
2019-02-08T22:53:21.996Z,99817.87
2019-02-08T22:56:11.717Z,99805.86
2019-02-08T22:59:01.648Z,99798.97
2019-02-08T23:01:53.179Z,99790.45
2019-02-08T23:04:43.190Z,99790.38
2019-02-08T23:07:33.310Z,99780.86
2019-02-08T23:10:23.321Z,99771.72
2019-02-08T23:13:13.198Z,99767.78
2019-02-08T23:16:03.417Z,99765.75
2019-02-08T23:18:53.232Z,99758.43
2019-02-08T23:21:43.616Z,99754.27
2019-02-08T23:24:33.109Z,99757.84
2019-02-08T23:27:22.736Z,99760.09
2019-02-08T23:30:13.970Z,99746.62
2019-02-08T23:33:05.189Z,99746.83
2019-02-08T23:35:54.868Z,99735.17
2019-02-08T23:38:44.663Z,99726.27
2019-02-08T23:41:36.151Z,99718.36
2019-02-08T23:44:25.891Z,99713.67
2019-02-08T23:47:15.787Z,99715.09
2019-02-08T23:50:07.159Z,99703.11
2019-02-08T23:52:56.774Z,99706.32
2019-02-08T23:55:47.229Z,99699.73
2019-02-08T23:58:37.418Z,99698.63
